createdAt,value
2022-12-17T00:02:44.832Z,98644.58
2022-12-17T00:05:32.749Z,98631.89
2022-12-17T00:08:31.581Z,98634.00
2022-12-17T00:11:18.411Z,98637.60
2022-12-17T00:14:04.851Z,98644.62
2022-12-17T00:16:51.595Z,98643.66
2022-12-17T00:19:39.293Z,98639.79
2022-12-17T00:22:25.970Z,98644.54
2022-12-17T00:25:12.697Z,98645.16
2022-12-17T00:27:59.491Z,98639.36
2022-12-17T00:30:46.177Z,98634.63
2022-12-17T00:33:34.641Z,98641.79
2022-12-17T00:36:23.187Z,98643.94
2022-12-17T00:39:09.855Z,98640.26
2022-12-17T00:41:58.137Z,98638.79
2022-12-17T00:44:44.756Z,98649.05
2022-12-17T00:47:32.865Z,98658.44
2022-12-17T00:50:19.434Z,98665.85
2022-12-17T00:53:08.021Z,98660.73
2022-12-17T00:55:54.920Z,98662.99
2022-12-17T00:58:45.253Z,98667.94
2022-12-17T01:01:32.177Z,98672.11
2022-12-17T01:04:19.998Z,98682.17
2022-12-17T01:07:08.128Z,98686.92
2022-12-17T01:09:54.737Z,98678.06
2022-12-17T01:12:42.357Z,98671.91
2022-12-17T01:15:29.176Z,98681.23
2022-12-17T01:18:16.029Z,98691.77
2022-12-17T01:21:02.483Z,98691.45
2022-12-17T01:23:48.987Z,98688.02
2022-12-17T01:26:35.953Z,98692.04
2022-12-17T01:29:22.703Z,98688.33
2022-12-17T01:32:09.557Z,98688.27
2022-12-17T01:34:57.734Z,98684.56
2022-12-17T01:37:44.375Z,98685.30
2022-12-17T01:40:30.976Z,98680.90
2022-12-17T01:43:17.659Z,98683.67
2022-12-17T01:46:08.305Z,98687.27
2022-12-17T01:49:04.977Z,98686.56
2022-12-17T01:51:54.337Z,98688.89
2022-12-17T01:54:44.866Z,98695.56
2022-12-17T01:57:35.243Z,98702.90
2022-12-17T02:00:28.078Z,98700.78
2022-12-17T02:03:17.369Z,98691.58
2022-12-17T02:06:16.957Z,98690.94
2022-12-17T02:09:15.850Z,98694.14
2022-12-17T02:12:16.538Z,98698.06
2022-12-17T02:15:24.389Z,98705.02
2022-12-17T02:18:23.087Z,98705.37
2022-12-17T02:21:13.483Z,98695.61
2022-12-17T02:24:34.149Z,98696.38
2022-12-17T02:27:26.965Z,98693.42
2022-12-17T02:30:24.262Z,98694.28
2022-12-17T02:33:13.528Z,98698.66
2022-12-17T02:36:05.366Z,98697.45
2022-12-17T02:38:53.662Z,98695.20
2022-12-17T02:41:54.242Z,98694.54
2022-12-17T02:44:43.123Z,98701.94
2022-12-17T02:47:52.193Z,98710.14
2022-12-17T02:50:40.046Z,98711.78
2022-12-17T02:53:29.297Z,98708.60
2022-12-17T02:56:15.688Z,98705.56
2022-12-17T02:59:02.006Z,98716.49
2022-12-17T03:01:48.650Z,98727.79
2022-12-17T03:04:35.923Z,98732.27
2022-12-17T03:07:22.416Z,98741.64
2022-12-17T03:10:08.938Z,98740.04
2022-12-17T03:12:55.421Z,98749.39
2022-12-17T03:15:41.703Z,98768.51
2022-12-17T03:18:28.008Z,98786.25
2022-12-17T03:21:16.294Z,98790.80
2022-12-17T03:24:02.946Z,98794.26
2022-12-17T03:26:50.647Z,98782.28
2022-12-17T03:29:37.156Z,98757.16
2022-12-17T03:32:24.139Z,98744.42
2022-12-17T03:35:10.846Z,98744.29
2022-12-17T03:37:57.418Z,98732.59
2022-12-17T03:40:43.809Z,98732.73
2022-12-17T03:43:32.787Z,98747.39
2022-12-17T03:46:20.266Z,98758.00
2022-12-17T03:49:07.498Z,98756.87
2022-12-17T03:51:54.228Z,98761.45
2022-12-17T03:54:40.636Z,98759.27
2022-12-17T03:57:28.864Z,98750.46
2022-12-17T04:00:15.641Z,98762.88
2022-12-17T04:03:02.405Z,98764.25
2022-12-17T04:05:50.441Z,98767.02
2022-12-17T04:08:37.008Z,98772.15
2022-12-17T04:11:25.802Z,98782.97
2022-12-17T04:14:12.613Z,98797.27
2022-12-17T04:16:59.521Z,98799.85
2022-12-17T04:19:46.336Z,98793.46
2022-12-17T04:22:32.558Z,98796.58
2022-12-17T04:25:19.119Z,98794.61
2022-12-17T04:28:05.922Z,98793.23
2022-12-17T04:30:52.249Z,98796.52
2022-12-17T04:33:40.380Z,98791.92
2022-12-17T04:36:28.645Z,98794.77
2022-12-17T04:39:15.489Z,98796.65
2022-12-17T04:42:01.826Z,98788.26
2022-12-17T04:44:48.167Z,98781.73
2022-12-17T04:47:34.780Z,98774.81
2022-12-17T04:50:21.411Z,98774.95
2022-12-17T04:53:08.350Z,98775.93
2022-12-17T04:55:54.898Z,98776.50
2022-12-17T04:58:41.462Z,98773.67
2022-12-17T05:01:29.526Z,98773.34
2022-12-17T05:04:17.118Z,98771.02
2022-12-17T05:07:04.812Z,98773.48
2022-12-17T05:09:51.644Z,98775.03
2022-12-17T05:12:38.313Z,98777.35
2022-12-17T05:15:26.834Z,98794.73
2022-12-17T05:18:13.658Z,98795.79
2022-12-17T05:21:01.802Z,98794.33
2022-12-17T05:23:48.250Z,98804.62
2022-12-17T05:26:44.931Z,98812.54
2022-12-17T05:29:33.852Z,98821.65
2022-12-17T05:32:20.672Z,98822.76
2022-12-17T05:35:07.224Z,98824.93
2022-12-17T05:37:53.838Z,98831.98
2022-12-17T05:40:41.842Z,98837.50
2022-12-17T05:43:31.929Z,98840.27
2022-12-17T05:46:21.059Z,98836.92
2022-12-17T05:49:09.074Z,98837.83
2022-12-17T05:51:55.599Z,98835.80
2022-12-17T05:54:42.093Z,98835.84
2022-12-17T05:57:28.595Z,98836.02
2022-12-17T06:00:15.251Z,98838.78
2022-12-17T06:03:02.125Z,98841.02
2022-12-17T06:05:49.741Z,98842.23
2022-12-17T06:08:36.684Z,98852.05
2022-12-17T06:11:23.205Z,98857.94
2022-12-17T06:14:09.679Z,98856.48
2022-12-17T06:16:58.235Z,98860.56
2022-12-17T06:19:45.112Z,98864.73
2022-12-17T06:22:32.017Z,98875.34
2022-12-17T06:25:18.761Z,98883.87
2022-12-17T06:28:05.197Z,98889.98
2022-12-17T06:30:52.346Z,98894.20
2022-12-17T06:33:38.947Z,98896.85
2022-12-17T06:36:27.643Z,98897.75
2022-12-17T06:39:14.308Z,98899.87
2022-12-17T06:42:04.583Z,98896.29
2022-12-17T06:44:52.983Z,98895.42
2022-12-17T06:47:39.936Z,98896.73
2022-12-17T06:50:28.313Z,98897.20
2022-12-17T06:53:20.871Z,98895.61
2022-12-17T06:56:10.859Z,98891.34
2022-12-17T06:58:57.487Z,98900.05
2022-12-17T07:01:44.786Z,98909.98
2022-12-17T07:04:32.746Z,98912.62
2022-12-17T07:07:19.355Z,98915.21
2022-12-17T07:10:09.326Z,98920.34
2022-12-17T07:13:01.569Z,98931.85
2022-12-17T07:15:47.912Z,98941.15
2022-12-17T07:18:35.859Z,98940.02
2022-12-17T07:21:22.477Z,98939.45
2022-12-17T07:24:09.362Z,98949.77
2022-12-17T07:26:56.000Z,98962.66
2022-12-17T07:29:44.214Z,98977.39
2022-12-17T07:32:31.046Z,98977.59
2022-12-17T07:35:17.714Z,98971.23
2022-12-17T07:38:05.743Z,98979.91
2022-12-17T07:40:53.147Z,98987.17
2022-12-17T07:43:40.133Z,98996.02
2022-12-17T07:46:27.951Z,99006.61
2022-12-17T07:49:14.494Z,99015.99
2022-12-17T07:52:00.883Z,99018.27
2022-12-17T07:54:47.294Z,99020.08
2022-12-17T07:57:34.331Z,99020.95
2022-12-17T08:00:23.682Z,99017.31
2022-12-17T08:03:16.983Z,99021.30
2022-12-17T08:06:07.445Z,99021.61
2022-12-17T08:08:54.119Z,99022.13
2022-12-17T08:11:40.700Z,99022.83
2022-12-17T08:14:27.459Z,99031.26
2022-12-17T08:17:14.314Z,99037.29
2022-12-17T08:20:01.522Z,99032.80
2022-12-17T08:22:48.322Z,99035.41
2022-12-17T08:25:35.214Z,99043.68
2022-12-17T08:28:48.942Z,99045.91
2022-12-17T08:31:27.870Z,99048.52
2022-12-17T08:34:14.246Z,99048.14
2022-12-17T08:37:00.872Z,99048.60
2022-12-17T08:39:47.563Z,99046.48
2022-12-17T08:42:34.461Z,99056.00
2022-12-17T08:45:21.412Z,99061.24
2022-12-17T08:48:08.303Z,99064.55
2022-12-17T08:50:55.179Z,99073.16
2022-12-17T08:53:43.141Z,99084.58
2022-12-17T08:56:31.362Z,99091.54
2022-12-17T08:59:17.686Z,99096.28
2022-12-17T09:02:04.560Z,99106.91
2022-12-17T09:04:53.638Z,99112.45
2022-12-17T09:07:39.995Z,99107.64
2022-12-17T09:10:27.725Z,99098.80
2022-12-17T09:13:16.501Z,99100.89
2022-12-17T09:16:02.908Z,99106.10
2022-12-17T09:18:49.556Z,99103.17
2022-12-17T09:21:36.082Z,99103.39
2022-12-17T09:24:24.854Z,99095.94
2022-12-17T09:27:13.969Z,99097.68
2022-12-17T09:30:00.602Z,99095.26
2022-12-17T09:32:51.266Z,99093.15
2022-12-17T09:35:37.949Z,99087.29
2022-12-17T09:38:24.514Z,99085.68
2022-12-17T09:41:11.623Z,99092.52
2022-12-17T09:44:01.501Z,99102.52
2022-12-17T09:47:20.382Z,99109.92
2022-12-17T09:50:07.862Z,99113.38
2022-12-17T09:53:00.911Z,99123.11
2022-12-17T09:55:59.217Z,99118.80
2022-12-17T09:59:00.152Z,99117.98
2022-12-17T10:01:53.146Z,99116.09
2022-12-17T10:04:53.097Z,99108.45
2022-12-17T10:07:45.979Z,99111.19
2022-12-17T10:10:41.096Z,99103.28
2022-12-17T10:13:39.654Z,99114.23
2022-12-17T10:16:55.200Z,99103.15
2022-12-17T10:19:55.051Z,99099.23
2022-12-17T10:23:05.474Z,99101.59
2022-12-17T10:25:55.096Z,99112.64
2022-12-17T10:28:44.620Z,99115.44
2022-12-17T10:31:45.851Z,99115.33
2022-12-17T10:34:38.881Z,99113.02
2022-12-17T10:37:39.605Z,99113.16
2022-12-17T10:40:52.696Z,99112.91
2022-12-17T10:43:58.333Z,99113.18
2022-12-17T10:46:51.287Z,99107.43
2022-12-17T10:49:43.277Z,99108.18
2022-12-17T10:52:51.589Z,99109.48
2022-12-17T10:55:50.205Z,99116.70
2022-12-17T10:58:49.335Z,99125.59
2022-12-17T11:01:45.611Z,99138.77
2022-12-17T11:04:43.395Z,99145.73
2022-12-17T11:07:39.982Z,99147.98
2022-12-17T11:10:38.939Z,99148.17
2022-12-17T11:13:51.475Z,99151.65
2022-12-17T11:16:51.186Z,99152.83
2022-12-17T11:20:18.275Z,99152.27
2022-12-17T11:23:11.374Z,99158.21
2022-12-17T11:26:11.119Z,99161.60
2022-12-17T11:29:00.577Z,99168.84
2022-12-17T11:31:57.227Z,99167.51
2022-12-17T11:34:43.735Z,99180.15
2022-12-17T11:37:48.077Z,99185.67
2022-12-17T11:40:57.796Z,99189.95
2022-12-17T11:44:00.102Z,99190.42
2022-12-17T11:47:04.142Z,99188.45
2022-12-17T11:50:11.909Z,99192.76
2022-12-17T11:53:07.800Z,99191.70
2022-12-17T11:56:24.284Z,99201.11
2022-12-17T11:59:17.415Z,99193.61
2022-12-17T12:02:29.011Z,99201.27
2022-12-17T12:06:10.534Z,99208.04
2022-12-17T12:09:07.324Z,99218.27
2022-12-17T12:12:26.035Z,99216.92
2022-12-17T12:15:25.234Z,99215.33
2022-12-17T12:18:28.288Z,99215.36
2022-12-17T12:21:42.992Z,99219.44
2022-12-17T12:24:41.987Z,99221.16
2022-12-17T12:27:43.184Z,99225.66
2022-12-17T12:30:40.740Z,99225.33
2022-12-17T12:34:04.943Z,99229.77
2022-12-17T12:36:54.035Z,99231.30
2022-12-17T12:39:56.818Z,99245.92
2022-12-17T12:43:04.632Z,99246.87
2022-12-17T12:46:10.130Z,99243.46
2022-12-17T12:49:19.110Z,99246.57
2022-12-17T12:52:09.944Z,99250.21
2022-12-17T12:55:07.092Z,99252.48
2022-12-17T12:58:00.624Z,99262.88
2022-12-17T13:00:49.082Z,99268.02
2022-12-17T13:03:45.057Z,99268.20
2022-12-17T13:06:35.124Z,99274.66
2022-12-17T13:09:34.151Z,99286.65
2022-12-17T13:12:02.930Z,99290.79
2022-12-17T13:14:46.451Z,99295.77
2022-12-17T13:17:14.456Z,99294.55
2022-12-17T13:19:58.969Z,99281.02
2022-12-17T13:22:33.682Z,99277.55
2022-12-17T13:25:20.646Z,99285.52
2022-12-17T13:27:49.625Z,99296.08
2022-12-17T13:30:24.242Z,99300.11
2022-12-17T13:33:19.528Z,99308.66
2022-12-17T13:35:59.356Z,99310.40
2022-12-17T13:38:33.870Z,99325.33
2022-12-17T13:41:11.471Z,99323.95
2022-12-17T13:43:47.197Z,99321.17
2022-12-17T13:46:27.047Z,99327.40
2022-12-17T13:49:01.209Z,99324.90
2022-12-17T13:51:32.253Z,99331.81
2022-12-17T13:54:02.730Z,99338.92
2022-12-17T13:56:34.061Z,99347.08
2022-12-17T13:59:09.295Z,99353.89
2022-12-17T14:01:46.661Z,99353.94
2022-12-17T14:04:25.265Z,99363.02
2022-12-17T14:06:56.820Z,99368.08
2022-12-17T14:09:40.668Z,99371.88
2022-12-17T14:12:22.315Z,99351.02
2022-12-17T14:14:58.315Z,99351.52
2022-12-17T14:17:30.989Z,99381.30
2022-12-17T14:20:05.583Z,99386.86
2022-12-17T14:22:39.032Z,99384.96
2022-12-17T14:25:32.338Z,99376.64
2022-12-17T14:28:05.255Z,99380.62
2022-12-17T14:30:33.059Z,99389.27
2022-12-17T14:33:01.097Z,99394.81
2022-12-17T14:35:39.256Z,99396.77
2022-12-17T14:38:36.909Z,99406.99
2022-12-17T14:41:32.240Z,99417.23
2022-12-17T14:44:03.110Z,99421.41
2022-12-17T14:46:33.800Z,99422.80
2022-12-17T14:49:05.962Z,99428.40
2022-12-17T14:51:39.095Z,99431.90
2022-12-17T14:54:33.288Z,99433.66
2022-12-17T14:57:20.301Z,99440.81
2022-12-17T14:59:50.757Z,99450.21
2022-12-17T15:02:29.937Z,99451.45
2022-12-17T15:05:03.044Z,99456.84
2022-12-17T15:07:33.251Z,99457.70
2022-12-17T15:10:01.130Z,99459.08
2022-12-17T15:12:32.105Z,99459.94
2022-12-17T15:14:59.996Z,99464.61
2022-12-17T15:17:27.838Z,99471.57
2022-12-17T15:19:56.390Z,99471.25
2022-12-17T15:22:25.683Z,99479.46
2022-12-17T15:24:53.522Z,99480.02
2022-12-17T15:27:21.337Z,99482.13
2022-12-17T15:29:51.002Z,99485.08
2022-12-17T15:32:22.599Z,99492.52
2022-12-17T15:34:50.746Z,99491.48
2022-12-17T15:37:25.518Z,99498.78
2022-12-17T15:39:57.813Z,99504.85
2022-12-17T15:42:46.923Z,99504.34
2022-12-17T15:45:14.837Z,99505.02
2022-12-17T15:47:42.682Z,99510.20
2022-12-17T15:50:10.781Z,99517.14
2022-12-17T15:52:38.658Z,99522.53
2022-12-17T15:55:07.334Z,99528.42
2022-12-17T15:57:36.728Z,99530.17
2022-12-17T16:00:05.204Z,99532.63
2022-12-17T16:02:33.353Z,99535.40
2022-12-17T16:05:01.772Z,99537.16
2022-12-17T16:07:29.698Z,99540.44
2022-12-17T16:10:04.527Z,99540.45
2022-12-17T16:12:33.326Z,99541.83
2022-12-17T16:15:01.812Z,99546.17
2022-12-17T16:17:29.793Z,99542.73
2022-12-17T16:19:58.128Z,99543.06
2022-12-17T16:22:26.179Z,99546.35
2022-12-17T16:24:54.257Z,99552.23
2022-12-17T16:27:22.196Z,99548.29
2022-12-17T16:29:50.518Z,99551.41
2022-12-17T16:32:18.461Z,99555.23
2022-12-17T16:34:47.047Z,99557.30
2022-12-17T16:37:15.109Z,99557.80
2022-12-17T16:39:43.799Z,99565.58
2022-12-17T16:42:12.031Z,99570.23
2022-12-17T16:44:39.934Z,99570.39
2022-12-17T16:47:07.882Z,99574.36
2022-12-17T16:49:35.766Z,99577.48
2022-12-17T16:52:03.728Z,99580.77
2022-12-17T16:54:32.838Z,99587.38
2022-12-17T16:57:02.270Z,99593.11
2022-12-17T16:59:31.026Z,99599.20
2022-12-17T17:02:00.523Z,99598.52
2022-12-17T17:04:28.719Z,99604.78
2022-12-17T17:06:57.581Z,99606.00
2022-12-17T17:09:25.987Z,99604.45
2022-12-17T17:11:59.286Z,99607.42
2022-12-17T17:14:28.002Z,99607.59
2022-12-17T17:16:56.369Z,99614.52
2022-12-17T17:19:24.207Z,99618.33
2022-12-17T17:21:54.265Z,99618.70
2022-12-17T17:24:25.847Z,99618.21
2022-12-17T17:26:55.203Z,99624.10
2022-12-17T17:29:23.191Z,99632.77
2022-12-17T17:34:39.815Z,99634.33
2022-12-17T17:37:08.253Z,99636.41
2022-12-17T17:39:36.441Z,99645.08
2022-12-17T17:42:05.262Z,99652.19
2022-12-17T17:44:33.522Z,99658.09
2022-12-17T17:47:01.665Z,99665.52
2022-12-17T17:49:29.628Z,99671.95
2022-12-17T17:52:13.323Z,99674.54
2022-12-17T17:54:42.681Z,99678.89
2022-12-17T17:57:11.876Z,99682.17
2022-12-17T17:59:39.885Z,99683.02
2022-12-17T18:02:10.855Z,99689.60
2022-12-17T18:04:40.261Z,99693.61
2022-12-17T18:07:24.887Z,99699.67
2022-12-17T18:09:54.129Z,99704.00
2022-12-17T18:12:41.732Z,99713.18
2022-12-17T18:15:15.285Z,99717.52
2022-12-17T18:17:46.819Z,99718.02
2022-12-17T18:20:16.098Z,99720.63
2022-12-17T18:22:46.491Z,99720.64
2022-12-17T18:25:17.863Z,99727.38
2022-12-17T18:27:48.348Z,99732.58
2022-12-17T18:30:16.478Z,99740.70
2022-12-17T18:32:50.384Z,99744.17
2022-12-17T18:35:19.011Z,99749.54
2022-12-17T18:37:46.918Z,99752.83
2022-12-17T18:40:14.883Z,99750.24
2022-12-17T18:43:01.725Z,99753.00
2022-12-17T18:45:30.951Z,99754.21
2022-12-17T18:47:58.880Z,99752.31
2022-12-17T18:50:26.982Z,99755.60
2022-12-17T18:52:54.837Z,99757.52
2022-12-17T18:55:22.679Z,99762.88
2022-12-17T18:57:50.501Z,99765.98
2022-12-17T19:00:18.627Z,99771.89
2022-12-17T19:02:46.885Z,99777.60
2022-12-17T19:05:15.780Z,99777.25
2022-12-17T19:07:43.802Z,99773.96
2022-12-17T19:10:11.775Z,99769.81
2022-12-17T19:12:39.689Z,99774.83
2022-12-17T19:15:09.005Z,99773.09
2022-12-17T19:17:36.922Z,99777.08
2022-12-17T19:20:05.741Z,99781.24
2022-12-17T19:22:33.696Z,99784.52
2022-12-17T19:25:01.552Z,99788.85
2022-12-17T19:27:29.377Z,99789.20
2022-12-17T19:29:57.305Z,99797.17
2022-12-17T19:32:26.014Z,99803.05
2022-12-17T19:34:53.853Z,99806.34
2022-12-17T19:37:21.879Z,99810.50
2022-12-17T19:39:50.033Z,99813.96
2022-12-17T19:42:33.459Z,99821.58
2022-12-17T19:45:05.517Z,99822.27
2022-12-17T19:47:33.459Z,99827.13
2022-12-17T19:50:01.320Z,99829.02
2022-12-17T19:52:29.184Z,99832.14
2022-12-17T19:54:58.201Z,99833.53
2022-12-17T19:57:26.023Z,99837.52
2022-12-17T19:59:53.882Z,99843.05
2022-12-17T20:02:21.861Z,99843.39
2022-12-17T20:04:51.319Z,99849.45
2022-12-17T20:07:19.191Z,99852.23
2022-12-17T20:09:47.059Z,99858.46
2022-12-17T20:12:14.958Z,99865.38
2022-12-17T20:14:42.806Z,99870.23
2022-12-17T20:17:10.739Z,99870.06
2022-12-17T20:19:38.813Z,99878.71
2022-12-17T20:22:07.004Z,99886.67
2022-12-17T20:24:35.161Z,99885.81
2022-12-17T20:27:04.291Z,99887.02
2022-12-17T20:29:32.122Z,99890.65
2022-12-17T20:32:00.379Z,99893.77
2022-12-17T20:34:28.370Z,99896.20
2022-12-17T20:36:56.245Z,99899.65
2022-12-17T20:39:27.417Z,99900.88
2022-12-17T20:41:57.264Z,99908.30
2022-12-17T20:44:25.407Z,99914.20
2022-12-17T20:46:53.416Z,99919.89
2022-12-17T20:49:21.864Z,99925.27
2022-12-17T20:51:50.292Z,99928.23
2022-12-17T20:54:18.207Z,99936.89
2022-12-17T20:56:46.582Z,99940.01
2022-12-17T20:59:18.047Z,99945.71
2022-12-17T21:01:50.382Z,99946.73
2022-12-17T21:04:22.945Z,99955.21
2022-12-17T21:06:51.736Z,99965.43
2022-12-17T21:09:22.645Z,99969.05
2022-12-17T21:11:51.301Z,99970.23
2022-12-17T21:14:19.679Z,99974.04
2022-12-17T21:16:48.257Z,99981.47
2022-12-17T21:19:19.149Z,99981.98
2022-12-17T21:21:47.413Z,99989.40
2022-12-17T21:24:15.952Z,99992.17
2022-12-17T21:26:46.118Z,99991.65
2022-12-17T21:29:14.902Z,100000.46
2022-12-17T21:31:48.264Z,100002.55
2022-12-17T21:34:21.926Z,100005.31
2022-12-17T21:36:51.092Z,100011.67
2022-12-17T21:39:20.008Z,100014.60
2022-12-17T21:42:07.793Z,100020.29
2022-12-17T21:44:37.108Z,100024.45
2022-12-17T21:47:05.562Z,100033.26
2022-12-17T21:49:34.076Z,100035.65
2022-12-17T21:52:03.143Z,100034.09
2022-12-17T21:54:31.416Z,100041.00
2022-12-17T21:56:59.230Z,100041.49
2022-12-17T21:59:27.353Z,100043.54
2022-12-17T22:01:57.670Z,100051.82
2022-12-17T22:04:26.891Z,100051.09
2022-12-17T22:07:01.599Z,100059.19
2022-12-17T22:09:56.969Z,100055.38
2022-12-17T22:12:43.780Z,100060.90
2022-12-17T22:15:13.005Z,100070.05
2022-12-17T22:17:42.726Z,100073.17
2022-12-17T22:20:11.980Z,100074.04
2022-12-17T22:22:39.931Z,100077.33
2022-12-17T22:25:11.368Z,100077.66
2022-12-17T22:27:41.405Z,100081.44
2022-12-17T22:30:33.799Z,100085.23
2022-12-17T22:33:12.353Z,100084.69
2022-12-17T22:37:57.159Z,100087.27
2022-12-17T22:42:18.738Z,100093.82
2022-12-17T22:44:45.479Z,100103.49
2022-12-17T22:44:51.495Z,100105.23
2022-12-17T22:47:22.650Z,100115.06
2022-12-17T22:49:50.718Z,100121.10
2022-12-17T22:52:20.199Z,100131.30
2022-12-17T22:54:49.380Z,100131.65
2022-12-17T22:57:35.813Z,100134.61
2022-12-17T23:00:23.257Z,100141.19
2022-12-17T23:02:54.222Z,100143.44
2022-12-17T23:05:24.030Z,100144.86
2022-12-17T23:07:52.964Z,100153.52
2022-12-17T23:10:22.220Z,100154.55
2022-12-17T23:12:56.459Z,100157.65
2022-12-17T23:15:28.572Z,100164.08
2022-12-17T23:17:59.119Z,100164.09
2022-12-17T23:20:29.524Z,100167.73
2022-12-17T23:22:57.704Z,100172.95
2022-12-17T23:25:26.579Z,100175.73
2022-12-17T23:27:54.781Z,100179.20
2022-12-17T23:30:22.998Z,100180.58
2022-12-17T23:32:51.926Z,100182.86
2022-12-17T23:35:20.314Z,100176.66
2022-12-17T23:37:49.751Z,100185.31
2022-12-17T23:40:17.860Z,100183.95
2022-12-17T23:42:45.849Z,100187.39
2022-12-17T23:45:14.236Z,100194.11
2022-12-17T23:47:42.300Z,100197.23
2022-12-17T23:50:11.998Z,100205.55
2022-12-17T23:52:40.076Z,100205.20
2022-12-17T23:55:11.949Z,100211.08
2022-12-17T23:57:40.412Z,100217.12
